page 8072 of 1004920 registered users

eBook PostsUsers

  1. 0seatpilot84 registered @ 2013-06-26 12:22:57, last login @ 2013-06-26 12:22:57
  2. 0basehat5 registered @ 2013-06-26 12:23:35, last login @ 2013-06-26 12:23:35
  3. 0seederbucket56 registered @ 2013-06-26 12:24:05, last login @ 2013-06-26 12:24:05
  4. 0degreeoyster5 registered @ 2013-06-26 12:25:18, last login @ 2013-06-26 12:25:18
  5. 0africagrease16 registered @ 2013-06-26 12:26:51, last login @ 2013-06-26 12:26:51
  6. 0arrow25trip registered @ 2013-06-26 12:26:58, last login @ 2013-06-26 12:26:58
  7. 0hoe65end registered @ 2013-06-26 12:27:10, last login @ 2013-06-26 12:27:10
  8. 0singer09camp registered @ 2013-06-26 12:27:15, last login @ 2013-06-26 12:27:15
  9. 0peakbudget9 registered @ 2013-06-26 12:27:42, last login @ 2013-06-26 12:27:42
  10. 0duck5lamb registered @ 2013-06-26 12:28:06, last login @ 2013-06-26 12:28:06
  11. 0appeal07steam registered @ 2013-06-26 12:28:52, last login @ 2013-06-26 12:28:52
  12. 0gliderlentil4 registered @ 2013-06-26 12:28:54, last login @ 2013-06-26 12:28:54
  13. 0sweets62shorts registered @ 2013-06-26 12:28:55, last login @ 2013-06-26 12:28:55
  14. 0brazilclaus6 registered @ 2013-06-26 12:30:13, last login @ 2013-06-26 12:30:13
  15. 0nepal29sunday registered @ 2013-06-26 12:30:14, last login @ 2013-06-26 12:30:14
  16. 0northfowl5 registered @ 2013-06-26 12:30:31, last login @ 2013-06-26 12:30:31
  17. 0coathole4 registered @ 2013-06-26 12:30:49, last login @ 2013-06-26 12:30:49
  18. 0hand66vise registered @ 2013-06-26 12:31:17, last login @ 2013-06-26 12:31:17
  19. 0fan9tuna registered @ 2013-06-26 12:31:19, last login @ 2013-06-26 12:31:19
  20. 0couchhair5 registered @ 2013-06-26 12:31:34, last login @ 2013-06-26 12:31:34
  21. 0brakedeal5 registered @ 2013-06-26 12:31:49, last login @ 2013-06-26 12:31:49
  22. 0ice35day registered @ 2013-06-26 12:31:55, last login @ 2013-06-26 12:31:55
  23. 0dryerengine68 registered @ 2013-06-26 12:32:06, last login @ 2013-06-26 12:32:06
  24. 0mouth6butter registered @ 2013-06-26 12:33:52, last login @ 2013-06-26 12:33:52
  25. 0beamsize57 registered @ 2013-06-26 12:34:09, last login @ 2013-06-26 12:34:09
  26. 0wall30part registered @ 2013-06-26 12:34:13, last login @ 2013-06-26 12:34:13
  27. 0shopcirrus15 registered @ 2013-06-26 12:34:15, last login @ 2013-06-26 12:34:15
  28. 0swiss3couch registered @ 2013-06-26 12:34:34, last login @ 2013-06-26 12:34:34
  29. 0cent3syria registered @ 2013-06-26 12:35:05, last login @ 2013-06-26 12:35:05
  30. 0table81lute registered @ 2013-06-26 12:35:06, last login @ 2013-06-26 12:35:06
  31. 0holebomb1 registered @ 2013-06-26 12:35:06, last login @ 2013-06-26 12:35:06
  32. 0glovethrone29 registered @ 2013-06-26 12:35:14, last login @ 2013-06-26 12:35:14
  33. 0footpaper02 registered @ 2013-06-26 12:35:28, last login @ 2013-06-26 12:35:28
  34. 0ironjaguar93 registered @ 2013-06-26 12:35:31, last login @ 2013-06-26 12:35:31
  35. 0indexstock9 registered @ 2013-06-26 12:35:34, last login @ 2013-06-26 12:35:34
  36. 0tiedaisy26 registered @ 2013-06-26 12:37:01, last login @ 2013-06-26 12:37:01
  37. 0forkfrost9 registered @ 2013-06-26 12:37:43, last login @ 2013-06-26 12:37:43
  38. 0coin2breath registered @ 2013-06-26 12:37:52, last login @ 2013-06-26 12:37:52
  39. 0powder8value registered @ 2013-06-26 12:38:24, last login @ 2013-06-26 12:38:24
  40. 0typybukmacherskieforum5 registered @ 2013-06-26 12:38:29, last login @ 2013-06-26 12:38:29
  41. 0buffet2otter registered @ 2013-06-26 12:38:39, last login @ 2013-06-26 12:38:39
  42. 0orange14tip registered @ 2013-06-26 12:39:21, last login @ 2013-06-26 12:39:21
  43. 0expertrobin20 registered @ 2013-06-26 12:39:30, last login @ 2013-06-26 12:39:30
  44. 0starheaven57 registered @ 2013-06-26 12:39:31, last login @ 2013-06-26 12:39:31
  45. 0woundcourse89 registered @ 2013-06-26 12:39:47, last login @ 2013-06-26 12:39:47
  46. 0liquid5dew registered @ 2013-06-26 12:40:53, last login @ 2013-06-26 12:40:53
  47. 0mapsoccer23 registered @ 2013-06-26 12:41:37, last login @ 2013-06-26 12:41:37
  48. 0nametrip83 registered @ 2013-06-26 12:42:30, last login @ 2013-06-26 12:42:30
  49. 0glue4tongue registered @ 2013-06-26 12:42:31, last login @ 2013-06-26 12:42:31
  50. 0roast9badge registered @ 2013-06-26 12:46:51, last login @ 2013-06-26 12:46:51
  51. 0nerve3singer registered @ 2013-06-26 12:46:52, last login @ 2013-06-26 12:46:52
  52. 0dimemosque0 registered @ 2013-06-26 12:47:38, last login @ 2013-06-26 12:47:38
  53. 0prose71bumper registered @ 2013-06-26 12:49:56, last login @ 2013-06-26 12:49:56
  54. 0stitch44throat registered @ 2013-06-26 12:53:02, last login @ 2013-06-26 12:53:02
  55. 0ramie3catsup registered @ 2013-06-26 12:53:34, last login @ 2013-06-26 12:53:34
  56. 0rugbypowder44 registered @ 2013-06-26 12:54:43, last login @ 2013-06-26 12:54:43
  57. 0unitcable83 registered @ 2013-06-26 12:55:06, last login @ 2013-06-26 12:55:06
  58. 0pestscontrol registered @ 2013-06-26 12:55:08, last login @ 2013-06-26 12:55:08
  59. 0tubaappeal55 registered @ 2013-06-26 12:55:13, last login @ 2013-06-26 12:55:13
  60. 0valley80blood registered @ 2013-06-26 12:55:56, last login @ 2013-06-26 12:55:56
  61. 0COACKSHEAPH registered @ 2013-06-26 12:55:57, last login @ 2013-06-26 12:55:57
  62. 0michele621 registered @ 2013-06-26 12:56:17, last login @ 2013-06-26 12:56:17
  63. 0fruit0drink registered @ 2013-06-26 12:57:44, last login @ 2013-06-26 12:57:44
  64. 0beltane registered @ 2013-06-26 12:58:15, last login @ 2013-06-26 13:00:40
  65. 0skincat5 registered @ 2013-06-26 12:59:00, last login @ 2013-06-26 12:59:00
  66. 0newslaw98 registered @ 2013-06-26 12:59:34, last login @ 2013-06-26 12:59:34
  67. 0courttie0 registered @ 2013-06-26 13:00:51, last login @ 2013-06-26 13:00:51
  68. 0month21desire registered @ 2013-06-26 13:02:07, last login @ 2013-06-26 13:02:07
  69. 0israel07satin registered @ 2013-06-26 13:02:48, last login @ 2013-06-26 13:02:48
  70. 0tomatobeam3 registered @ 2013-06-26 13:02:55, last login @ 2013-06-26 13:02:55
  71. 0woodheron9 registered @ 2013-06-26 13:03:13, last login @ 2013-06-26 13:03:13
  72. 0crown84shock registered @ 2013-06-26 13:05:00, last login @ 2013-06-26 13:05:00
  73. 0drawplain70 registered @ 2013-06-26 13:05:20, last login @ 2013-06-26 13:05:20
  74. 0zebrastart2 registered @ 2013-06-26 13:06:13, last login @ 2013-06-26 13:06:13
  75. 0seedersatin62 registered @ 2013-06-26 13:06:41, last login @ 2013-06-26 13:06:41
  76. 0energybutter52 registered @ 2013-06-26 13:08:14, last login @ 2013-06-26 13:08:14
  77. 0cow6pint registered @ 2013-06-26 13:08:59, last login @ 2013-06-26 13:08:59
  78. 0cancer8lunge registered @ 2013-06-26 13:09:27, last login @ 2013-06-26 13:09:27
  79. 0subwaybaker98 registered @ 2013-06-26 13:09:28, last login @ 2013-06-26 13:09:28
  80. 0mindflax6 registered @ 2013-06-26 13:09:47, last login @ 2013-06-26 13:09:47
  81. 0showoval87 registered @ 2013-06-26 13:10:37, last login @ 2013-06-26 13:10:37
  82. 0daniel5part registered @ 2013-06-26 13:10:55, last login @ 2013-06-26 13:10:55
  83. 0enemy3lyric registered @ 2013-06-26 13:11:27, last login @ 2013-06-26 13:11:27
  84. 0ideacall3 registered @ 2013-06-26 13:11:39, last login @ 2013-06-26 13:11:39
  85. 0baboondraw7 registered @ 2013-06-26 13:12:25, last login @ 2013-06-26 13:12:25
  86. 0chequesoap89 registered @ 2013-06-26 13:12:44, last login @ 2013-06-26 13:12:44
  87. 0ankle9yogurt registered @ 2013-06-26 13:13:44, last login @ 2013-06-26 13:13:44
  88. 0pantymark3 registered @ 2013-06-26 13:13:45, last login @ 2013-06-26 13:13:45
  89. 0carbonpen8 registered @ 2013-06-26 13:13:48, last login @ 2013-06-26 13:13:48
  90. 0cellobuffet25 registered @ 2013-06-26 13:13:50, last login @ 2013-06-26 13:13:50
  91. 0mexico69shop registered @ 2013-06-26 13:14:26, last login @ 2013-06-26 13:14:26
  92. 0judgetemper9 registered @ 2013-06-26 13:14:32, last login @ 2013-06-26 13:14:32
  93. 0opensmoke1 registered @ 2013-06-26 13:14:33, last login @ 2013-06-26 13:14:33
  94. 0syrup81rock registered @ 2013-06-26 13:14:48, last login @ 2013-06-26 13:14:48
  95. 0black67drop registered @ 2013-06-26 13:15:35, last login @ 2013-06-26 13:15:35
  96. 0dahliafrench56 registered @ 2013-06-26 13:16:03, last login @ 2013-06-26 13:16:03
  97. 0cannon40shirt registered @ 2013-06-26 13:16:45, last login @ 2013-06-26 13:16:45
  98. 0sun2date registered @ 2013-06-26 13:18:54, last login @ 2013-06-26 13:18:54
  99. 0frameindia2 registered @ 2013-06-26 13:19:07, last login @ 2013-06-26 13:19:07
  100. 0kneesearch4 registered @ 2013-06-26 13:19:28, last login @ 2013-06-26 13:19:28
  101. 0ottercurve38 registered @ 2013-06-26 13:21:03, last login @ 2013-06-26 13:21:03

More...

[8082] [8081] [8080] [8079] [8078] [8077] [8076] [8075] [8074] [8073] [8072] [8071] [8070] [8069] [8068] [8067] [8066] [8065] [8064] [8063] ...[1]
Back to Top